Time;durP1;ratioP1;P1;durP2;ratioP2;P2;SDS_P1;SDS_P2;PMS_P1;PMS_P2;Temp;Humidity;BMP_temperature;BMP_pressure;BME280_temperature;BME280_humidity;BME280_pressure;Samples;Min_cycle;Max_cycle;Signal;HPM_P1;HPM_P2
2021/04/04 00:00:19;;;;;;;11.00;6.90;;;;;;;;;;5071093;28;20397;-50
2021/04/04 00:02:45;;;;;;;17.95;7.63;;;;;;;;;;5071512;28;20427;-50
2021/04/04 00:05:11;;;;;;;17.55;6.85;;;;;;;;;;5071082;28;20171;-50
2021/04/04 00:07:37;;;;;;;15.45;6.97;;;;;;;;;;5071071;28;20162;-50
2021/04/04 00:10:04;;;;;;;27.57;7.60;;;;;;;;;;5071083;28;20223;-50
2021/04/04 00:12:30;;;;;;;14.30;5.50;;;;;;;;;;5070782;28;20449;-52
2021/04/04 00:14:56;;;;;;;12.57;6.20;;;;;;;;;;5070740;28;20179;-53
2021/04/04 00:17:22;;;;;;;14.50;4.87;;;;;;;;;;5070704;28;20776;-53
2021/04/04 00:19:48;;;;;;;16.40;5.67;;;;;;;;;;5070921;28;20407;-53
2021/04/04 00:22:14;;;;;;;14.60;5.07;;;;;;;;;;5070957;28;20404;-50
2021/04/04 00:24:40;;;;;;;27.77;6.00;;;;;;;;;;5071038;28;20435;-50
2021/04/04 00:27:06;;;;;;;17.57;6.27;;;;;;;;;;5070692;28;20491;-50
2021/04/04 00:29:35;;;;;;;18.48;6.35;;;;;;;;;;5070870;28;20793;-50
2021/04/04 00:32:01;;;;;;;14.90;4.95;;;;;;;;;;5070748;28;20208;-53
2021/04/04 00:34:27;;;;;;;15.17;5.70;;;;;;;;;;5070701;28;20186;-54
2021/04/04 00:36:53;;;;;;;29.13;7.27;;;;;;;;;;5070735;28;20389;-53
2021/04/04 00:39:19;;;;;;;15.48;5.18;;;;;;;;;;5070766;28;20397;-52
2021/04/04 00:41:45;;;;;;;11.20;5.60;;;;;;;;;;5070697;28;20166;-52
2021/04/04 00:44:11;;;;;;;16.17;5.40;;;;;;;;;;5070335;28;20428;-52
2021/04/04 00:46:38;;;;;;;14.45;5.47;;;;;;;;;;5070252;28;20182;-51
2021/04/04 00:49:04;;;;;;;25.70;5.93;;;;;;;;;;5070591;28;20276;-51
2021/04/04 00:51:31;;;;;;;20.85;6.07;;;;;;;;;;5070430;28;20201;-50
2021/04/04 00:53:57;;;;;;;9.88;4.88;;;;;;;;;;5070865;28;20180;-50
2021/04/04 00:56:24;;;;;;;15.52;5.70;;;;;;;;;;5070173;28;20170;-53
2021/04/04 00:58:50;;;;;;;17.38;5.03;;;;;;;;;;5070382;28;20254;-50
2021/04/04 01:01:16;;;;;;;19.73;5.10;;;;;;;;;;5070157;28;20241;-50
2021/04/04 01:03:42;;;;;;;16.97;5.80;;;;;;;;;;5070178;28;20899;-50
2021/04/04 01:06:09;;;;;;;18.30;5.20;;;;;;;;;;5073828;28;20403;-50
2021/04/04 01:08:55;;;;;;;21.00;5.20;;;;;;;;;;5074456;28;20404;-50
2021/04/04 01:11:41;;;;;;;26.30;5.80;;;;;;;;;;5072166;28;20280;-51
2021/04/04 01:14:30;;;;;;;26.10;5.85;;;;;;;;;;5074250;28;20243;-50
2021/04/04 01:17:00;;;;;;;22.52;5.53;;;;;;;;;;5061183;28;20213;-50
2021/04/04 01:19:41;;;;;;;23.88;5.63;;;;;;;;;;5074196;28;20166;-52
2021/04/04 01:22:29;;;;;;;17.10;5.00;;;;;;;;;;5074151;28;20204;-50
2021/04/04 01:25:01;;;;;;;9.48;5.03;;;;;;;;;;5073860;28;20190;-52
2021/04/04 01:27:27;;;;;;;21.00;5.32;;;;;;;;;;5074092;28;20660;-52
2021/04/04 01:29:54;;;;;;;12.63;5.00;;;;;;;;;;5074029;28;20193;-53
2021/04/04 01:32:20;;;;;;;19.70;6.32;;;;;;;;;;5073797;28;20448;-50
2021/04/04 01:34:48;;;;;;;14.30;5.97;;;;;;;;;;5073771;28;20221;-51
2021/04/04 01:37:15;;;;;;;7.05;4.18;;;;;;;;;;5073793;28;20162;-50
2021/04/04 01:39:45;;;;;;;20.73;5.00;;;;;;;;;;5073851;28;20170;-50
2021/04/04 01:42:13;;;;;;;24.92;5.53;;;;;;;;;;5073689;28;20170;-50
2021/04/04 01:44:42;;;;;;;17.88;5.25;;;;;;;;;;5073922;28;20210;-53
2021/04/04 01:47:09;;;;;;;15.15;4.75;;;;;;;;;;5073655;28;20170;-53
2021/04/04 01:49:36;;;;;;;12.63;4.05;;;;;;;;;;5073653;28;20629;-50
2021/04/04 01:52:02;;;;;;;17.67;5.05;;;;;;;;;;5073504;28;20197;-50
2021/04/04 01:54:31;;;;;;;15.65;4.90;;;;;;;;;;5073888;28;20187;-50
2021/04/04 01:56:57;;;;;;;13.38;4.25;;;;;;;;;;5073198;28;20176;-53
2021/04/04 01:59:24;;;;;;;16.67;5.30;;;;;;;;;;5073901;28;20173;-50
2021/04/04 02:01:51;;;;;;;18.63;5.40;;;;;;;;;;5073441;28;20652;-52
2021/04/04 02:04:17;;;;;;;17.40;5.72;;;;;;;;;;5073522;28;20189;-52
2021/04/04 02:06:43;;;;;;;26.20;6.60;;;;;;;;;;5073242;28;20257;-51
2021/04/04 02:09:12;;;;;;;12.57;4.57;;;;;;;;;;5073303;28;20170;-50
2021/04/04 02:11:39;;;;;;;14.30;4.88;;;;;;;;;;5073203;28;20582;-50
2021/04/04 02:14:09;;;;;;;10.77;5.93;;;;;;;;;;5073459;28;20199;-51
2021/04/04 02:16:37;;;;;;;16.63;4.97;;;;;;;;;;5072188;28;20641;-51
2021/04/04 02:19:06;;;;;;;15.98;5.30;;;;;;;;;;5073252;28;20162;-50
2021/04/04 02:21:33;;;;;;;16.65;5.22;;;;;;;;;;5073286;28;20262;-50
2021/04/04 02:24:00;;;;;;;13.63;4.78;;;;;;;;;;5073179;28;20186;-51
2021/04/04 02:26:28;;;;;;;10.90;5.90;;;;;;;;;;5073040;28;20170;-50
2021/04/04 02:28:54;;;;;;;15.05;5.35;;;;;;;;;;5073334;28;20188;-50
2021/04/04 02:31:24;;;;;;;9.47;4.57;;;;;;;;;;5073102;28;20718;-50
2021/04/04 02:33:56;;;;;;;10.48;4.40;;;;;;;;;;5072970;28;20431;-50
2021/04/04 02:36:23;;;;;;;11.20;4.85;;;;;;;;;;5072735;28;20247;-50
2021/04/04 02:38:51;;;;;;;8.82;5.03;;;;;;;;;;5072751;28;20173;-53
2021/04/04 02:41:17;;;;;;;13.35;5.05;;;;;;;;;;5072814;28;20162;-50
2021/04/04 02:43:44;;;;;;;17.63;5.88;;;;;;;;;;5072551;28;20386;-50
2021/04/04 02:46:12;;;;;;;18.23;6.10;;;;;;;;;;5072405;28;20169;-51
2021/04/04 02:48:41;;;;;;;14.80;5.35;;;;;;;;;;5054472;28;20367;-50
2021/04/04 02:51:09;;;;;;;19.05;5.82;;;;;;;;;;5072558;28;20170;-50
2021/04/04 02:53:41;;;;;;;14.48;5.03;;;;;;;;;;5072285;28;20561;-50
2021/04/04 02:56:09;;;;;;;12.85;4.50;;;;;;;;;;5072190;28;20166;-51
2021/04/04 02:58:36;;;;;;;16.88;6.32;;;;;;;;;;5072492;28;20162;-50
2021/04/04 03:01:04;;;;;;;15.40;5.72;;;;;;;;;;5072401;28;20465;-50
2021/04/04 03:03:31;;;;;;;13.27;5.82;;;;;;;;;;5072083;28;20255;-50
2021/04/04 03:05:58;;;;;;;12.93;5.10;;;;;;;;;;5071897;28;20178;-53
2021/04/04 03:08:29;;;;;;;11.98;5.70;;;;;;;;;;5072114;28;20198;-53
2021/04/04 03:10:59;;;;;;;19.83;6.38;;;;;;;;;;5072150;28;20182;-50
2021/04/04 03:13:25;;;;;;;14.05;5.45;;;;;;;;;;5071959;28;20213;-51
2021/04/04 03:15:56;;;;;;;17.92;5.47;;;;;;;;;;5071782;28;20634;-50
2021/04/04 03:18:23;;;;;;;11.15;4.90;;;;;;;;;;5071905;28;20170;-53
2021/04/04 03:20:51;;;;;;;17.77;6.00;;;;;;;;;;5071996;28;20162;-51
2021/04/04 03:23:17;;;;;;;15.15;6.18;;;;;;;;;;5071734;28;20190;-53
2021/04/04 03:25:44;;;;;;;19.13;6.63;;;;;;;;;;5071671;28;20176;-50
2021/04/04 03:28:11;;;;;;;14.30;6.28;;;;;;;;;;5071693;28;20177;-50
2021/04/04 03:30:45;;;;;;;20.63;6.10;;;;;;;;;;5071707;28;20540;-50
2021/04/04 03:33:13;;;;;;;12.93;5.70;;;;;;;;;;5071722;28;20292;-52
2021/04/04 03:35:40;;;;;;;12.88;5.50;;;;;;;;;;5071555;28;20190;-50
2021/04/04 03:38:08;;;;;;;15.75;6.00;;;;;;;;;;5071670;28;20261;-50
2021/04/04 03:40:36;;;;;;;22.23;7.43;;;;;;;;;;5071644;28;20563;-50
2021/04/04 03:43:08;;;;;;;21.80;6.50;;;;;;;;;;5071380;28;20258;-50
2021/04/04 03:45:34;;;;;;;17.85;5.32;;;;;;;;;;5076541;28;20595;-52
2021/04/04 03:48:01;;;;;;;17.67;5.53;;;;;;;;;;5076729;28;20174;-52
2021/04/04 03:50:28;;;;;;;14.00;6.28;;;;;;;;;;5077213;28;20251;-52
2021/04/04 03:52:54;;;;;;;26.25;7.00;;;;;;;;;;5076494;28;20198;-52
2021/04/04 03:55:23;;;;;;;19.45;5.20;;;;;;;;;;5076351;28;20205;-52
2021/04/04 03:57:51;;;;;;;22.02;6.03;;;;;;;;;;5076902;28;20163;-52
2021/04/04 04:00:20;;;;;;;8.20;4.95;;;;;;;;;;5076231;28;20162;-52
2021/04/04 04:02:48;;;;;;;12.98;5.32;;;;;;;;;;5076830;28;20170;-52
2021/04/04 04:05:16;;;;;;;9.95;5.15;;;;;;;;;;5075932;28;20199;-52
2021/04/04 04:07:43;;;;;;;15.10;5.15;;;;;;;;;;5076369;28;20242;-53
2021/04/04 04:10:09;;;;;;;11.10;5.43;;;;;;;;;;5075673;28;20170;-52
2021/04/04 04:12:35;;;;;;;18.70;5.47;;;;;;;;;;5075910;28;20201;-52
2021/04/04 04:15:02;;;;;;;25.87;6.73;;;;;;;;;;5076169;28;20198;-52
2021/04/04 04:17:28;;;;;;;10.43;5.85;;;;;;;;;;5076443;28;20411;-52
2021/04/04 04:19:54;;;;;;;12.48;5.65;;;;;;;;;;5076067;28;20647;-52
2021/04/04 04:22:22;;;;;;;25.48;6.68;;;;;;;;;;5076652;28;20252;-52
2021/04/04 04:24:50;;;;;;;15.80;5.93;;;;;;;;;;5075549;28;20201;-54
2021/04/04 04:27:17;;;;;;;15.43;5.90;;;;;;;;;;5075583;28;20173;-53
2021/04/04 04:29:46;;;;;;;16.20;5.10;;;;;;;;;;5075865;28;20174;-53
2021/04/04 04:32:15;;;;;;;11.35;5.38;;;;;;;;;;5075561;28;20243;-51
2021/04/04 04:34:42;;;;;;;17.88;5.72;;;;;;;;;;5075133;28;20194;-52
2021/04/04 04:37:09;;;;;;;16.58;5.95;;;;;;;;;;5075496;28;20202;-52
2021/04/04 04:39:37;;;;;;;15.25;6.10;;;;;;;;;;5074668;28;20162;-53
2021/04/04 04:42:03;;;;;;;23.33;6.53;;;;;;;;;;5057519;28;20220;-53
2021/04/04 04:44:30;;;;;;;19.15;5.35;;;;;;;;;;5075481;28;20699;-52
2021/04/04 04:46:56;;;;;;;15.18;5.35;;;;;;;;;;5075287;28;20220;-52
2021/04/04 04:49:23;;;;;;;19.60;6.20;;;;;;;;;;5075451;28;20219;-53
2021/04/04 04:51:50;;;;;;;19.33;6.53;;;;;;;;;;5075003;28;20200;-53
2021/04/04 04:54:16;;;;;;;11.77;4.63;;;;;;;;;;5074307;28;20239;-52
2021/04/04 04:56:44;;;;;;;13.35;6.00;;;;;;;;;;5074585;28;20248;-52
2021/04/04 05:02:14;;;;;;;14.55;5.45;;;;;;;;;;5072709;28;20188;-52
2021/04/04 05:04:40;;;;;;;17.20;6.20;;;;;;;;;;5074100;28;20668;-53
2021/04/04 05:07:06;;;;;;;18.83;6.07;;;;;;;;;;5073873;28;20166;-54
2021/04/04 05:09:32;;;;;;;10.55;4.85;;;;;;;;;;5074426;28;20428;-53
2021/04/04 05:11:59;;;;;;;18.45;6.00;;;;;;;;;;5074044;28;20281;-52
2021/04/04 05:14:25;;;;;;;12.45;5.70;;;;;;;;;;5074226;28;20186;-52
2021/04/04 05:16:53;;;;;;;11.07;4.53;;;;;;;;;;5073464;28;20177;-52
2021/04/04 05:19:19;;;;;;;16.27;4.70;;;;;;;;;;5073992;28;20921;-53
2021/04/04 05:21:45;;;;;;;17.10;4.87;;;;;;;;;;5074376;28;20171;-53
2021/04/04 05:24:15;;;;;;;19.90;4.90;;;;;;;;;;5073846;28;20428;-52
2021/04/04 05:26:46;;;;;;;16.48;5.15;;;;;;;;;;5074216;28;20775;-52
2021/04/04 05:29:13;;;;;;;10.45;4.45;;;;;;;;;;5073847;28;20166;-52
2021/04/04 05:31:46;;;;;;;9.75;4.60;;;;;;;;;;5074636;28;20200;-53
2021/04/04 05:34:13;;;;;;;9.88;4.80;;;;;;;;;;5074020;28;20197;-52
2021/04/04 05:36:49;;;;;;;21.85;5.60;;;;;;;;;;5074538;28;20181;-52
2021/04/04 05:39:16;;;;;;;13.40;5.22;;;;;;;;;;5074095;28;20166;-52
2021/04/04 05:41:47;;;;;;;9.65;4.25;;;;;;;;;;5074412;28;20166;-53
2021/04/04 05:44:15;;;;;;;10.60;5.10;;;;;;;;;;5073541;28;20204;-53
2021/04/04 05:46:44;;;;;;;14.70;6.15;;;;;;;;;;5073750;28;20169;-53
2021/04/04 05:49:23;;;;;;;14.63;4.55;;;;;;;;;;5074150;28;20311;-53
2021/04/04 05:51:59;;;;;;;21.63;5.05;;;;;;;;;;5075604;28;20196;-53
2021/04/04 05:54:37;;;;;;;18.23;5.03;;;;;;;;;;5077630;28;20258;-53
2021/04/04 05:57:05;;;;;;;15.60;4.85;;;;;;;;;;5076657;28;20169;-54
2021/04/04 05:59:36;;;;;;;9.65;4.57;;;;;;;;;;5076652;28;20175;-52
2021/04/04 06:02:21;;;;;;;14.50;5.05;;;;;;;;;;5078567;28;20575;-53
2021/04/04 06:04:59;;;;;;;9.13;3.97;;;;;;;;;;5079058;28;20204;-51
2021/04/04 06:07:44;;;;;;;11.15;4.72;;;;;;;;;;5078372;28;20252;-52
2021/04/04 06:10:30;;;;;;;12.15;4.45;;;;;;;;;;5078785;28;20259;-53
2021/04/04 06:13:06;;;;;;;14.93;5.82;;;;;;;;;;5027621;28;20354;-53
2021/04/04 06:15:51;;;;;;;5.50;4.10;;;;;;;;;;5078011;28;20170;-53
2021/04/04 06:18:23;;;;;;;6.43;3.78;;;;;;;;;;5078665;28;20201;-52
2021/04/04 06:21:09;;;;;;;15.65;4.60;;;;;;;;;;5079209;28;20654;-53
2021/04/04 06:23:54;;;;;;;19.80;4.57;;;;;;;;;;5061285;28;20197;-53
2021/04/04 06:26:32;;;;;;;9.73;4.55;;;;;;;;;;5078786;28;20180;-52
2021/04/04 06:29:11;;;;;;;8.77;3.72;;;;;;;;;;5061112;28;20202;-52
2021/04/04 06:31:54;;;;;;;8.02;4.25;;;;;;;;;;5079263;28;20173;-52
2021/04/04 06:34:23;;;;;;;13.93;4.78;;;;;;;;;;5078851;28;20728;-53
2021/04/04 06:37:15;;;;;;;7.50;4.40;;;;;;;;;;5078315;28;20166;-52
2021/04/04 06:39:56;;;;;;;12.25;3.40;;;;;;;;;;5079018;28;20184;-53
2021/04/04 06:42:28;;;;;;;10.10;4.38;;;;;;;;;;5078816;28;20227;-52
2021/04/04 06:45:01;;;;;;;16.42;6.45;;;;;;;;;;5078172;28;20292;-52
2021/04/04 06:47:28;;;;;;;18.65;5.60;;;;;;;;;;5078687;28;20169;-52
2021/04/04 06:49:54;;;;;;;19.08;6.78;;;;;;;;;;5078776;28;20188;-53
2021/04/04 06:52:27;;;;;;;14.80;7.30;;;;;;;;;;5079112;28;20244;-52
2021/04/04 06:54:59;;;;;;;19.88;6.63;;;;;;;;;;5078844;28;20474;-52
2021/04/04 06:57:38;;;;;;;22.48;7.80;;;;;;;;;;5079142;28;20166;-52
2021/04/04 07:00:04;;;;;;;18.00;8.25;;;;;;;;;;5077816;28;20169;-53
2021/04/04 07:02:39;;;;;;;19.00;8.40;;;;;;;;;;5078258;28;20638;-51
2021/04/04 07:05:10;;;;;;;19.60;8.88;;;;;;;;;;5078934;28;20186;-53
2021/04/04 07:07:54;;;;;;;23.90;10.30;;;;;;;;;;5079421;28;20197;-52
2021/04/04 07:10:26;;;;;;;30.83;13.20;;;;;;;;;;5078795;28;20176;-52
2021/04/04 07:13:11;;;;;;;17.83;11.07;;;;;;;;;;5078042;28;20202;-52
2021/04/04 07:15:52;;;;;;;23.17;11.63;;;;;;;;;;5078367;28;20237;-52
2021/04/04 07:18:18;;;;;;;26.42;12.02;;;;;;;;;;5077934;28;20626;-53
2021/04/04 07:21:10;;;;;;;22.83;10.43;;;;;;;;;;5078616;28;20254;-52
2021/04/04 07:23:36;;;;;;;24.58;10.02;;;;;;;;;;5077308;28;20417;-52
2021/04/04 07:26:04;;;;;;;28.07;11.67;;;;;;;;;;5077332;28;20178;-53
2021/04/04 07:28:50;;;;;;;23.25;11.57;;;;;;;;;;5059372;28;20484;-53
2021/04/04 07:31:18;;;;;;;19.75;9.50;;;;;;;;;;5078035;28;20165;-53
2021/04/04 07:33:49;;;;;;;17.08;9.50;;;;;;;;;;5078221;28;20258;-53
2021/04/04 07:36:27;;;;;;;11.50;8.82;;;;;;;;;;5077862;28;20174;-52
2021/04/04 07:38:59;;;;;;;21.63;10.23;;;;;;;;;;5079277;28;20654;-53
2021/04/04 07:41:44;;;;;;;18.33;9.25;;;;;;;;;;5078132;28;20162;-51
2021/04/04 07:44:21;;;;;;;15.27;9.57;;;;;;;;;;5078259;28;20208;-51
2021/04/04 07:46:55;;;;;;;16.60;11.07;;;;;;;;;;5077710;28;20170;-53
2021/04/04 07:49:33;;;;;;;22.35;12.35;;;;;;;;;;5078270;28;20530;-52
2021/04/04 07:52:01;;;;;;;20.73;10.60;;;;;;;;;;5078121;28;20762;-51
2021/04/04 07:54:35;;;;;;;22.95;10.32;;;;;;;;;;5078618;28;20749;-53
2021/04/04 07:57:09;;;;;;;22.33;9.65;;;;;;;;;;5078271;28;20162;-51
2021/04/04 07:59:48;;;;;;;16.13;8.55;;;;;;;;;;5078429;28;20189;-53
2021/04/04 08:02:26;;;;;;;16.65;8.18;;;;;;;;;;5078197;28;20181;-52
2021/04/04 08:05:01;;;;;;;21.70;8.48;;;;;;;;;;5078139;28;20192;-51
2021/04/04 08:07:33;;;;;;;13.98;7.75;;;;;;;;;;5077999;28;20221;-51
2021/04/04 08:09:59;;;;;;;16.58;8.10;;;;;;;;;;5078041;28;20595;-54
2021/04/04 08:12:44;;;;;;;18.27;9.70;;;;;;;;;;5059896;28;20297;-52
2021/04/04 08:15:14;;;;;;;20.70;8.68;;;;;;;;;;5076624;28;20480;-52
2021/04/04 08:17:40;;;;;;;16.85;9.25;;;;;;;;;;5077646;28;20207;-51
2021/04/04 08:20:14;;;;;;;16.00;7.90;;;;;;;;;;5077419;28;20246;-52
2021/04/04 08:22:41;;;;;;;20.85;7.00;;;;;;;;;;5077718;28;20500;-53
2021/04/04 08:25:10;;;;;;;15.45;7.10;;;;;;;;;;5077997;28;20209;-51
2021/04/04 08:27:38;;;;;;;14.73;9.35;;;;;;;;;;5078272;28;20170;-53
2021/04/04 08:30:07;;;;;;;18.05;9.50;;;;;;;;;;5078007;28;20193;-52
2021/04/04 08:32:36;;;;;;;18.98;10.80;;;;;;;;;;5078208;28;20198;-53
2021/04/04 08:35:04;;;;;;;20.85;9.75;;;;;;;;;;5077624;28;20290;-52
2021/04/04 08:37:38;;;;;;;16.65;9.07;;;;;;;;;;5077537;28;20177;-53
2021/04/04 08:40:05;;;;;;;14.53;9.93;;;;;;;;;;5077110;28;20172;-53
2021/04/04 08:42:33;;;;;;;24.50;10.18;;;;;;;;;;5077131;28;20911;-53
2021/04/04 08:45:07;;;;;;;17.05;8.70;;;;;;;;;;5077269;28;20210;-53
2021/04/04 08:47:33;;;;;;;13.70;7.95;;;;;;;;;;5076973;28;20169;-53
2021/04/04 08:50:07;;;;;;;11.23;7.20;;;;;;;;;;5058111;28;20673;-53
2021/04/04 08:52:49;;;;;;;14.63;8.10;;;;;;;;;;5075721;28;20269;-53
2021/04/04 08:55:19;;;;;;;13.10;7.95;;;;;;;;;;5075231;28;20170;-52
2021/04/04 08:57:50;;;;;;;15.05;7.75;;;;;;;;;;5077213;28;20393;-52
2021/04/04 09:00:17;;;;;;;9.77;5.30;;;;;;;;;;5077541;28;20177;-52
2021/04/04 09:02:51;;;;;;;16.00;5.43;;;;;;;;;;5077689;28;20167;-53
2021/04/04 09:05:20;;;;;;;10.10;7.07;;;;;;;;;;5076669;28;20680;-53
2021/04/04 09:07:47;;;;;;;14.13;8.23;;;;;;;;;;5075826;28;20170;-52
2021/04/04 09:10:14;;;;;;;17.08;7.75;;;;;;;;;;5076027;28;20231;-52
2021/04/04 09:12:41;;;;;;;16.40;7.93;;;;;;;;;;5075878;28;20243;-52
2021/04/04 09:15:12;;;;;;;14.80;7.93;;;;;;;;;;5075314;28;20259;-53
2021/04/04 09:17:38;;;;;;;12.75;6.65;;;;;;;;;;5075569;28;20171;-52
2021/04/04 09:20:07;;;;;;;8.60;6.20;;;;;;;;;;5076655;28;20242;-52
2021/04/04 09:22:36;;;;;;;11.38;5.85;;;;;;;;;;5075100;28;20648;-52
2021/04/04 09:25:12;;;;;;;11.70;6.45;;;;;;;;;;5074268;28;20597;-51
2021/04/04 09:27:42;;;;;;;13.82;10.15;;;;;;;;;;5077746;28;20177;-52
2021/04/04 09:30:22;;;;;;;15.75;9.30;;;;;;;;;;5078348;28;20181;-52
2021/04/04 09:32:49;;;;;;;17.17;9.88;;;;;;;;;;5078874;28;20556;-52
2021/04/04 09:35:16;;;;;;;16.38;9.18;;;;;;;;;;5078932;28;20249;-53
2021/04/04 09:37:42;;;;;;;13.90;9.73;;;;;;;;;;5079036;28;20174;-52
2021/04/04 09:40:08;;;;;;;14.18;8.38;;;;;;;;;;5078886;28;20405;-53
2021/04/04 09:42:36;;;;;;;14.03;9.43;;;;;;;;;;5077830;28;20663;-52
2021/04/04 09:45:19;;;;;;;14.60;7.83;;;;;;;;;;5055625;28;20457;-53
2021/04/04 09:47:46;;;;;;;12.10;8.40;;;;;;;;;;5053695;28;20412;-50
2021/04/04 09:50:28;;;;;;;16.00;7.90;;;;;;;;;;5053711;28;20493;-51
2021/04/04 09:52:54;;;;;;;10.77;6.68;;;;;;;;;;5053459;28;20457;-50
2021/04/04 09:55:21;;;;;;;14.32;6.68;;;;;;;;;;5052974;28;20170;-53
2021/04/04 09:57:52;;;;;;;11.18;7.07;;;;;;;;;;5053661;28;20242;-50
2021/04/04 10:00:29;;;;;;;21.07;10.30;;;;;;;;;;5053574;28;20635;-50
2021/04/04 10:02:56;;;;;;;17.75;9.70;;;;;;;;;;5070547;28;20778;-54
2021/04/04 10:05:29;;;;;;;17.23;9.33;;;;;;;;;;5073224;28;20262;-50
2021/04/04 10:07:55;;;;;;;17.67;8.67;;;;;;;;;;5073176;28;20405;-53
2021/04/04 10:10:28;;;;;;;12.63;7.37;;;;;;;;;;5073406;28;20394;-52
2021/04/04 10:12:55;;;;;;;19.97;9.60;;;;;;;;;;5073028;28;20480;-53
2021/04/04 10:15:21;;;;;;;19.27;13.00;;;;;;;;;;5073032;28;20447;-53
2021/04/04 10:17:54;;;;;;;27.23;13.70;;;;;;;;;;5073423;28;20393;-50
2021/04/04 10:20:30;;;;;;;17.93;10.77;;;;;;;;;;5072970;28;20397;-50
2021/04/04 10:22:56;;;;;;;19.67;9.95;;;;;;;;;;5072885;28;20405;-50
2021/04/04 10:25:22;;;;;;;19.47;13.77;;;;;;;;;;5072860;28;20529;-51
2021/04/04 10:27:56;;;;;;;19.50;12.93;;;;;;;;;;5074250;28;20405;-52
2021/04/04 10:30:24;;;;;;;19.92;14.77;;;;;;;;;;5075294;28;20431;-53
2021/04/04 10:32:51;;;;;;;21.70;14.95;;;;;;;;;;5074543;28;20245;-54
2021/04/04 10:35:31;;;;;;;21.48;11.95;;;;;;;;;;5074071;28;20179;-50
2021/04/04 10:38:11;;;;;;;17.30;11.20;;;;;;;;;;5072394;28;20165;-51
2021/04/04 10:40:43;;;;;;;15.95;9.45;;;;;;;;;;5071325;28;20162;-51
2021/04/04 10:43:10;;;;;;;21.13;10.83;;;;;;;;;;5070350;28;20195;-51
2021/04/04 10:45:36;;;;;;;15.60;9.23;;;;;;;;;;5072217;28;20491;-50
2021/04/04 10:48:06;;;;;;;15.40;10.73;;;;;;;;;;5072464;28;20175;-51
2021/04/04 10:50:33;;;;;;;21.77;12.57;;;;;;;;;;5072756;28;20844;-50
2021/04/04 10:52:59;;;;;;;17.88;10.70;;;;;;;;;;5072369;28;20491;-53
2021/04/04 10:55:25;;;;;;;23.63;12.23;;;;;;;;;;5072333;28;20270;-52
2021/04/04 10:57:51;;;;;;;24.38;14.35;;;;;;;;;;5072405;28;20618;-51
2021/04/04 11:00:17;;;;;;;22.93;15.03;;;;;;;;;;5072531;28;20167;-51
2021/04/04 11:02:44;;;;;;;12.57;7.87;;;;;;;;;;5072275;28;20492;-52
2021/04/04 11:05:10;;;;;;;13.73;7.77;;;;;;;;;;5071967;28;20432;-52
2021/04/04 11:07:36;;;;;;;14.00;7.70;;;;;;;;;;5072309;28;20436;-52
2021/04/04 11:10:03;;;;;;;17.98;9.45;;;;;;;;;;5072224;28;20479;-51
2021/04/04 11:12:32;;;;;;;21.80;12.68;;;;;;;;;;5072082;28;20190;-50
2021/04/04 11:15:00;;;;;;;21.00;12.77;;;;;;;;;;5072262;28;20194;-50
2021/04/04 11:17:26;;;;;;;17.80;11.95;;;;;;;;;;5072373;28;20195;-52
2021/04/04 11:19:52;;;;;;;15.27;11.27;;;;;;;;;;5072198;28;20245;-50
2021/04/04 11:22:19;;;;;;;23.95;13.40;;;;;;;;;;5071230;28;20171;-51
2021/04/04 11:24:55;;;;;;;17.48;11.15;;;;;;;;;;5070579;28;20234;-50
2021/04/04 11:27:35;;;;;;;17.47;11.73;;;;;;;;;;5073517;28;20179;-50
2021/04/04 11:30:01;;;;;;;22.40;12.43;;;;;;;;;;5071826;28;20436;-50
2021/04/04 11:32:27;;;;;;;20.30;12.90;;;;;;;;;;5072198;28;20444;-50
2021/04/04 11:35:00;;;;;;;30.73;14.90;;;;;;;;;;5071306;28;20963;-51
2021/04/04 11:37:31;;;;;;;22.23;14.30;;;;;;;;;;5071426;28;20463;-50
2021/04/04 11:40:15;;;;;;;21.13;12.50;;;;;;;;;;5071722;28;20488;-51
2021/04/04 11:42:42;;;;;;;26.83;15.57;;;;;;;;;;5071407;28;20906;-51
2021/04/04 11:45:08;;;;;;;22.43;13.97;;;;;;;;;;5070917;28;20445;-50
2021/04/04 11:47:34;;;;;;;25.97;13.43;;;;;;;;;;5071485;28;20408;-50
2021/04/04 11:50:01;;;;;;;23.23;13.77;;;;;;;;;;5070555;28;20465;-53
2021/04/04 11:52:28;;;;;;;19.47;12.20;;;;;;;;;;5071121;28;20453;-52
2021/04/04 11:54:56;;;;;;;21.27;12.43;;;;;;;;;;5071051;28;20421;-50
2021/04/04 11:57:31;;;;;;;21.10;13.30;;;;;;;;;;5070773;28;20925;-51
2021/04/04 12:00:03;;;;;;;19.08;12.75;;;;;;;;;;5069707;28;20534;-50
2021/04/04 12:02:31;;;;;;;19.43;11.87;;;;;;;;;;5070966;28;20171;-50
2021/04/04 12:05:03;;;;;;;17.53;12.90;;;;;;;;;;5073622;28;20429;-53
2021/04/04 12:07:29;;;;;;;22.83;14.30;;;;;;;;;;5075134;28;20427;-53
2021/04/04 12:09:56;;;;;;;20.83;14.67;;;;;;;;;;5074208;28;20403;-53
2021/04/04 12:12:22;;;;;;;26.27;14.33;;;;;;;;;;5071018;28;20515;-50
2021/04/04 12:14:52;;;;;;;21.73;14.40;;;;;;;;;;5070843;28;20506;-51
2021/04/04 12:17:19;;;;;;;21.63;14.10;;;;;;;;;;5070719;28;20492;-51
2021/04/04 12:19:45;;;;;;;19.70;12.17;;;;;;;;;;5070892;28;20403;-52
2021/04/04 12:22:12;;;;;;;25.83;13.00;;;;;;;;;;5070852;28;20895;-50
2021/04/04 12:24:41;;;;;;;25.03;11.70;;;;;;;;;;5071017;28;20419;-51
2021/04/04 12:27:07;;;;;;;17.10;11.20;;;;;;;;;;5070934;28;20399;-53
2021/04/04 12:29:39;;;;;;;17.40;11.30;;;;;;;;;;5070687;28;20398;-52
2021/04/04 12:32:06;;;;;;;15.07;10.80;;;;;;;;;;5071037;28;20450;-52
2021/04/04 12:34:38;;;;;;;29.40;12.20;;;;;;;;;;5070740;28;20423;-51
2021/04/04 12:37:08;;;;;;;25.43;14.50;;;;;;;;;;5070857;28;20398;-50
2021/04/04 12:39:34;;;;;;;25.60;14.93;;;;;;;;;;5071035;28;20816;-50
2021/04/04 12:42:00;;;;;;;26.17;14.77;;;;;;;;;;5071337;28;20399;-51
2021/04/04 12:44:33;;;;;;;27.77;16.73;;;;;;;;;;5071521;28;20454;-50
2021/04/04 12:47:06;;;;;;;28.73;16.87;;;;;;;;;;5070480;28;20404;-50
2021/04/04 12:49:32;;;;;;;22.73;14.47;;;;;;;;;;5070431;28;20422;-52
2021/04/04 12:51:58;;;;;;;22.00;13.43;;;;;;;;;;5070440;28;20446;-52
2021/04/04 12:54:25;;;;;;;21.17;12.00;;;;;;;;;;5070179;28;20431;-53
2021/04/04 12:56:51;;;;;;;20.63;11.57;;;;;;;;;;5070671;28;20557;-51
2021/04/04 12:59:17;;;;;;;22.57;12.70;;;;;;;;;;5070462;28;20481;-50
2021/04/04 13:01:44;;;;;;;20.33;12.40;;;;;;;;;;5074487;28;20396;-50
2021/04/04 13:04:14;;;;;;;25.00;13.67;;;;;;;;;;5074296;28;20419;-53
2021/04/04 13:06:40;;;;;;;26.50;12.90;;;;;;;;;;5074209;28;20418;-53
2021/04/04 13:09:06;;;;;;;24.03;14.20;;;;;;;;;;5074417;28;20407;-53
2021/04/04 13:11:32;;;;;;;23.33;13.73;;;;;;;;;;5074436;28;20408;-50
2021/04/04 13:13:58;;;;;;;27.50;14.60;;;;;;;;;;5074141;28;20466;-50
2021/04/04 13:16:26;;;;;;;28.40;17.07;;;;;;;;;;5074259;28;20414;-50
2021/04/04 13:18:52;;;;;;;30.27;18.07;;;;;;;;;;5074253;28;20434;-50
2021/04/04 13:21:21;;;;;;;31.57;18.70;;;;;;;;;;5074073;28;20403;-50
2021/04/04 13:23:51;;;;;;;44.20;21.03;;;;;;;;;;5073784;28;20925;-51
2021/04/04 13:26:17;;;;;;;37.70;20.80;;;;;;;;;;5073649;28;20407;-51
2021/04/04 13:28:43;;;;;;;38.77;22.10;;;;;;;;;;5073954;28;20404;-52
2021/04/04 13:31:21;;;;;;;39.63;22.40;;;;;;;;;;5073949;28;20412;-53
2021/04/04 13:33:48;;;;;;;33.27;21.03;;;;;;;;;;5073792;28;20562;-51
2021/04/04 13:36:14;;;;;;;42.17;22.67;;;;;;;;;;5073401;28;20486;-51
2021/04/04 13:38:41;;;;;;;35.03;19.43;;;;;;;;;;5073733;28;20391;-51
2021/04/04 13:41:08;;;;;;;27.93;17.50;;;;;;;;;;5073797;28;20407;-51
2021/04/04 13:43:43;;;;;;;33.60;18.40;;;;;;;;;;5073629;28;20498;-53
2021/04/04 13:46:10;;;;;;;34.50;18.33;;;;;;;;;;5073613;28;20775;-51
2021/04/04 13:48:36;;;;;;;31.70;17.87;;;;;;;;;;5073449;28;20425;-52
2021/04/04 13:51:02;;;;;;;31.43;17.57;;;;;;;;;;5073495;28;20867;-52
2021/04/04 13:53:36;;;;;;;33.40;18.57;;;;;;;;;;5073676;28;20539;-52
2021/04/04 13:56:09;;;;;;;34.00;20.23;;;;;;;;;;5073345;28;20435;-50
2021/04/04 13:58:37;;;;;;;36.27;20.93;;;;;;;;;;5073385;28;20393;-51
2021/04/04 14:01:05;;;;;;;27.13;19.00;;;;;;;;;;5073363;28;20780;-54
2021/04/04 14:03:32;;;;;;;28.40;19.63;;;;;;;;;;5073368;28;20432;-51
2021/04/04 14:06:05;;;;;;;24.80;18.70;;;;;;;;;;5068604;28;20428;-53
2021/04/04 14:08:31;;;;;;;22.90;17.13;;;;;;;;;;5066032;28;20967;-50
2021/04/04 14:10:57;;;;;;;24.23;17.43;;;;;;;;;;5071677;28;20447;-51
2021/04/04 14:13:23;;;;;;;23.40;17.40;;;;;;;;;;5060408;28;20495;-51
2021/04/04 14:15:49;;;;;;;30.87;17.47;;;;;;;;;;5056091;28;20441;-51
2021/04/04 14:18:15;;;;;;;23.37;17.43;;;;;;;;;;5053453;28;20402;-50
2021/04/04 14:20:41;;;;;;;22.83;17.30;;;;;;;;;;5053522;28;20451;-50
2021/04/04 14:23:07;;;;;;;27.10;19.07;;;;;;;;;;5063433;28;20759;-50
2021/04/04 14:25:33;;;;;;;24.40;17.10;;;;;;;;;;5070817;28;20420;-51
2021/04/04 14:27:59;;;;;;;22.37;17.83;;;;;;;;;;5063136;28;20550;-51
2021/04/04 14:30:25;;;;;;;27.17;18.80;;;;;;;;;;5062158;28;20411;-50
2021/04/04 14:32:51;;;;;;;27.93;19.23;;;;;;;;;;5055674;28;20464;-50
2021/04/04 14:35:17;;;;;;;28.83;20.47;;;;;;;;;;5052624;28;20877;-50
2021/04/04 14:37:43;;;;;;;29.60;19.33;;;;;;;;;;5053002;28;20405;-50
2021/04/04 14:40:09;;;;;;;27.97;20.10;;;;;;;;;;5017610;28;20414;-51
2021/04/04 14:42:35;;;;;;;26.07;20.03;;;;;;;;;;5050833;28;20467;-50